sensor_id;sensor_type;location;lat;lon;timestamp;pressure;altitude;pressure_sealevel;temperature;humidity
29417;BME280;28421;51.030;4.006;2023-03-01T00:01:47;103105.69;;;-0.67;63.59
29417;BME280;28421;51.030;4.006;2023-03-01T00:04:13;103083.44;;;-0.90;63.87
29417;BME280;28421;51.030;4.006;2023-03-01T00:06:38;103110.31;;;-0.76;64.17
29417;BME280;28421;51.030;4.006;2023-03-01T00:09:04;103102.50;;;-0.79;63.96
29417;BME280;28421;51.030;4.006;2023-03-01T00:11:31;103126.66;;;-0.61;64.02
29417;BME280;28421;51.030;4.006;2023-03-01T00:13:59;103066.81;;;-0.93;63.66
29417;BME280;28421;51.030;4.006;2023-03-01T00:16:28;103072.16;;;-0.95;64.20
29417;BME280;28421;51.030;4.006;2023-03-01T00:18:55;103075.41;;;-0.85;63.78
29417;BME280;28421;51.030;4.006;2023-03-01T00:21:22;103127.53;;;-0.61;64.05
29417;BME280;28421;51.030;4.006;2023-03-01T00:23:48;103095.59;;;-0.83;64.33
29417;BME280;28421;51.030;4.006;2023-03-01T00:26:14;103074.16;;;-1.03;64.19
29417;BME280;28421;51.030;4.006;2023-03-01T00:28:41;103093.34;;;-0.98;64.52
29417;BME280;28421;51.030;4.006;2023-03-01T00:31:11;103051.75;;;-1.21;64.54
29417;BME280;28421;51.030;4.006;2023-03-01T00:33:37;103053.22;;;-1.11;64.52
29417;BME280;28421;51.030;4.006;2023-03-01T05:36:54;102914.56;;;-1.85;77.02
29417;BME280;28421;51.030;4.006;2023-03-01T05:39:24;102866.28;;;-2.19;77.57
29417;BME280;28421;51.030;4.006;2023-03-01T05:41:58;102834.19;;;-2.35;77.47
29417;BME280;28421;51.030;4.006;2023-03-01T05:44:25;102849.56;;;-2.18;77.02
29417;BME280;28421;51.030;4.006;2023-03-01T05:46:51;102899.78;;;-1.92;76.63
29417;BME280;28421;51.030;4.006;2023-03-01T05:49:17;102919.78;;;-1.83;76.79
29417;BME280;28421;51.030;4.006;2023-03-01T05:51:43;102877.72;;;-2.20;77.15
29417;BME280;28421;51.030;4.006;2023-03-01T05:54:12;102868.03;;;-2.20;77.19
29417;BME280;28421;51.030;4.006;2023-03-01T05:56:37;102868.03;;;-2.20;76.65
29417;BME280;28421;51.030;4.006;2023-03-01T05:59:04;102913.28;;;-2.03;76.89
29417;BME280;28421;51.030;4.006;2023-03-01T06:01:33;102863.19;;;-2.37;76.95
29417;BME280;28421;51.030;4.006;2023-03-01T06:03:59;102918.44;;;-1.98;77.14
29417;BME280;28421;51.030;4.006;2023-03-01T06:06:34;102868.25;;;-2.28;77.42
29417;BME280;28421;51.030;4.006;2023-03-01T06:09:03;102852.97;;;-2.49;77.35
29417;BME280;28421;51.030;4.006;2023-03-01T06:11:28;102910.06;;;-2.14;77.26
29417;BME280;28421;51.030;4.006;2023-03-01T06:13:54;102897.69;;;-2.12;77.11
29417;BME280;28421;51.030;4.006;2023-03-01T06:16:19;102849.34;;;-2.43;77.25
29417;BME280;28421;51.030;4.006;2023-03-01T06:18:45;102875.19;;;-2.25;77.05
29417;BME280;28421;51.030;4.006;2023-03-01T06:21:10;102901.75;;;-1.98;77.01
29417;BME280;28421;51.030;4.006;2023-03-01T06:23:36;102898.56;;;-2.11;76.52
29417;BME280;28421;51.030;4.006;2023-03-01T06:26:05;102862.19;;;-2.31;76.26
29417;BME280;28421;51.030;4.006;2023-03-01T06:28:31;102891.00;;;-2.25;75.82
29417;BME280;28421;51.030;4.006;2023-03-01T06:30:56;102895.91;;;-2.45;75.46
29417;BME280;28421;51.030;4.006;2023-03-01T06:33:22;102887.00;;;-2.40;75.69
29417;BME280;28421;51.030;4.006;2023-03-01T06:35:50;102902.72;;;-2.37;75.63
29417;BME280;28421;51.030;4.006;2023-03-01T06:38:15;102866.50;;;-2.63;75.76
29417;BME280;28421;51.030;4.006;2023-03-01T06:40:43;102895.84;;;-2.42;75.75
29417;BME280;28421;51.030;4.006;2023-03-01T06:43:09;102896.75;;;-2.43;76.37
29417;BME280;28421;51.030;4.006;2023-03-01T06:45:34;102889.72;;;-2.43;75.90
29417;BME280;28421;51.030;4.006;2023-03-01T06:48:07;102907.16;;;-2.39;76.56
29417;BME280;28421;51.030;4.006;2023-03-01T06:50:33;102882.94;;;-2.53;77.72
29417;BME280;28421;51.030;4.006;2023-03-01T06:52:59;102832.63;;;-2.78;77.96
29417;BME280;28421;51.030;4.006;2023-03-01T06:55:24;102817.06;;;-2.86;78.76
29417;BME280;28421;51.030;4.006;2023-03-01T06:57:57;102912.94;;;-2.25;78.70
29417;BME280;28421;51.030;4.006;2023-03-01T07:00:23;102917.28;;;-2.22;78.87
29417;BME280;28421;51.030;4.006;2023-03-01T07:02:49;102897.25;;;-2.28;79.01
29417;BME280;28421;51.030;4.006;2023-03-01T07:05:14;102863.41;;;-2.44;78.52
29417;BME280;28421;51.030;4.006;2023-03-01T07:07:40;102871.00;;;-2.32;78.86
29417;BME280;28421;51.030;4.006;2023-03-01T07:10:06;102862.06;;;-2.27;78.71
29417;BME280;28421;51.030;4.006;2023-03-01T07:12:32;102867.47;;;-2.33;78.28
29417;BME280;28421;51.030;4.006;2023-03-01T07:14:57;102886.38;;;-2.15;78.19
29417;BME280;28421;51.030;4.006;2023-03-01T07:17:23;102917.84;;;-2.09;77.67
29417;BME280;28421;51.030;4.006;2023-03-01T07:19:48;102897.00;;;-2.18;77.57
29417;BME280;28421;51.030;4.006;2023-03-01T07:22:13;102889.16;;;-2.21;77.82
29417;BME280;28421;51.030;4.006;2023-03-01T07:24:40;102939.97;;;-1.82;77.54
29417;BME280;28421;51.030;4.006;2023-03-01T07:27:06;102918.19;;;-1.89;77.27
29417;BME280;28421;51.030;4.006;2023-03-01T07:29:31;102935.25;;;-1.69;76.94
29417;BME280;28421;51.030;4.006;2023-03-01T07:31:57;102918.19;;;-1.58;76.81
29417;BME280;28421;51.030;4.006;2023-03-01T07:34:23;102895.75;;;-1.72;76.15
29417;BME280;28421;51.030;4.006;2023-03-01T07:36:49;102901.59;;;-1.61;76.02
29417;BME280;28421;51.030;4.006;2023-03-01T07:39:14;102903.06;;;-1.51;75.80
29417;BME280;28421;51.030;4.006;2023-03-01T07:41:40;102877.13;;;-1.66;76.26
29417;BME280;28421;51.030;4.006;2023-03-01T07:44:05;102917.34;;;-1.29;75.64
29417;BME280;28421;51.030;4.006;2023-03-01T07:46:31;102905.84;;;-1.26;75.21
29417;BME280;28421;51.030;4.006;2023-03-01T07:48:57;102891.28;;;-1.39;74.92
29417;BME280;28421;51.030;4.006;2023-03-01T07:51:23;102900.53;;;-1.25;74.66
29417;BME280;28421;51.030;4.006;2023-03-01T07:53:48;102907.91;;;-1.06;74.36
29417;BME280;28421;51.030;4.006;2023-03-01T07:56:17;102873.91;;;-1.17;73.98
29417;BME280;28421;51.030;4.006;2023-03-01T07:58:44;102877.78;;;-0.99;73.94
29417;BME280;28421;51.030;4.006;2023-03-01T08:01:15;102882.78;;;-0.91;73.55
29417;BME280;28421;51.030;4.006;2023-03-01T08:03:41;102916.47;;;-0.70;73.48
29417;BME280;28421;51.030;4.006;2023-03-01T08:06:08;102870.88;;;-0.77;73.46
29417;BME280;28421;51.030;4.006;2023-03-01T08:08:35;102841.38;;;-0.89;72.77
29417;BME280;28421;51.030;4.006;2023-03-01T08:11:02;102879.09;;;-0.58;72.71
29417;BME280;28421;51.030;4.006;2023-03-01T08:13:28;102861.47;;;-0.57;72.17
29417;BME280;28421;51.030;4.006;2023-03-01T08:15:54;102866.34;;;-0.45;72.00
29417;BME280;28421;51.030;4.006;2023-03-01T08:18:20;102917.72;;;-0.02;71.45
29417;BME280;28421;51.030;4.006;2023-03-01T08:20:46;102916.63;;;0.05;71.52
29417;BME280;28421;51.030;4.006;2023-03-01T08:23:12;102924.91;;;0.19;70.68
29417;BME280;28421;51.030;4.006;2023-03-01T08:25:38;102892.16;;;-0.02;69.95
29417;BME280;28421;51.030;4.006;2023-03-01T08:28:04;102865.50;;;0.05;69.89
29417;BME280;28421;51.030;4.006;2023-03-01T08:30:30;102892.38;;;0.17;69.67
29417;BME280;28421;51.030;4.006;2023-03-01T08:32:55;102932.56;;;0.52;69.70
29417;BME280;28421;51.030;4.006;2023-03-01T08:35:21;102898.44;;;0.44;69.37
29417;BME280;28421;51.030;4.006;2023-03-01T08:37:47;102892.53;;;0.38;69.02
29417;BME280;28421;51.030;4.006;2023-03-01T08:40:13;102913.84;;;0.58;67.87
29417;BME280;28421;51.030;4.006;2023-03-01T08:42:39;102896.50;;;0.73;67.42
29417;BME280;28421;51.030;4.006;2023-03-01T08:45:06;102882.56;;;0.68;67.52
29417;BME280;28421;51.030;4.006;2023-03-01T08:47:31;102879.75;;;0.72;67.15
29417;BME280;28421;51.030;4.006;2023-03-01T08:49:59;102912.09;;;1.04;67.31
29417;BME280;28421;51.030;4.006;2023-03-01T08:52:25;102889.78;;;1.10;66.71
29417;BME280;28421;51.030;4.006;2023-03-01T08:54:51;102872.00;;;1.12;66.55
29417;BME280;28421;51.030;4.006;2023-03-01T08:57:16;102895.06;;;1.32;66.41
29417;BME280;28421;51.030;4.006;2023-03-01T08:59:42;102849.63;;;1.20;66.03
29417;BME280;28421;51.030;4.006;2023-03-01T09:02:16;102843.06;;;1.29;65.47
29417;BME280;28421;51.030;4.006;2023-03-01T09:04:42;102876.56;;;1.52;64.59
29417;BME280;28421;51.030;4.006;2023-03-01T09:07:08;102825.78;;;1.41;65.05
29417;BME280;28421;51.030;4.006;2023-03-01T09:09:34;102834.69;;;1.60;64.81
29417;BME280;28421;51.030;4.006;2023-03-01T09:12:00;102836.81;;;1.72;63.25
29417;BME280;28421;51.030;4.006;2023-03-01T09:14:26;102820.13;;;1.70;63.58
29417;BME280;28421;51.030;4.006;2023-03-01T09:16:52;102812.75;;;1.77;62.93
29417;BME280;28421;51.030;4.006;2023-03-01T09:19:17;102870.81;;;2.24;61.67
29417;BME280;28421;51.030;4.006;2023-03-01T09:21:42;102811.59;;;2.03;62.19
29417;BME280;28421;51.030;4.006;2023-03-01T09:24:18;102863.53;;;2.48;60.85
29417;BME280;28421;51.030;4.006;2023-03-01T09:26:44;102820.69;;;2.37;60.86
29417;BME280;28421;51.030;4.006;2023-03-01T09:29:12;102857.06;;;2.72;61.11
29417;BME280;28421;51.030;4.006;2023-03-01T09:31:38;102852.41;;;2.78;59.84
29417;BME280;28421;51.030;4.006;2023-03-01T09:34:04;102852.50;;;2.95;59.78
29417;BME280;28421;51.030;4.006;2023-03-01T09:36:30;102843.72;;;2.93;56.70
29417;BME280;28421;51.030;4.006;2023-03-01T09:38:57;102850.16;;;3.06;57.49
29417;BME280;28421;51.030;4.006;2023-03-01T09:47:00;102804.72;;;2.93;56.37
29417;BME280;28421;51.030;4.006;2023-03-01T09:49:33;102787.28;;;2.88;55.59
29417;BME280;28421;51.030;4.006;2023-03-01T09:52:11;102838.63;;;3.24;54.33
29417;BME280;28421;51.030;4.006;2023-03-01T09:54:40;102765.03;;;2.90;55.78
29417;BME280;28421;51.030;4.006;2023-03-01T09:57:39;102838.56;;;3.26;54.77
29417;BME280;28421;51.030;4.006;2023-03-01T10:02:43;102764.09;;;2.91;53.69
29417;BME280;28421;51.030;4.006;2023-03-01T10:05:19;102797.00;;;3.06;52.71
29417;BME280;28421;51.030;4.006;2023-03-01T10:08:06;102835.44;;;3.35;53.99
29417;BME280;28421;51.030;4.006;2023-03-01T10:10:43;102813.72;;;3.44;54.63
29417;BME280;28421;51.030;4.006;2023-03-01T10:13:23;102833.56;;;3.72;53.65
29417;BME280;28421;51.030;4.006;2023-03-01T10:15:53;102781.31;;;3.54;53.74
29417;BME280;28421;51.030;4.006;2023-03-01T10:18:29;102732.31;;;3.24;52.59
29417;BME280;28421;51.030;4.006;2023-03-01T10:21:07;102825.75;;;3.86;52.08
29417;BME280;28421;51.030;4.006;2023-03-01T10:23:36;102766.63;;;3.46;52.65
29417;BME280;28421;51.030;4.006;2023-03-01T10:26:23;102818.63;;;3.87;51.94
29417;BME280;28421;51.030;4.006;2023-03-01T10:29:11;102747.38;;;3.59;51.81
29417;BME280;28421;51.030;4.006;2023-03-01T10:36:41;102782.13;;;4.22;51.03
29417;BME280;28421;51.030;4.006;2023-03-01T10:39:22;102798.78;;;4.26;49.93
29417;BME280;28421;51.030;4.006;2023-03-01T10:42:00;102777.94;;;4.34;50.92
29417;BME280;28421;51.030;4.006;2023-03-01T10:44:45;102756.53;;;4.35;50.41
29417;BME280;28421;51.030;4.006;2023-03-01T10:49:38;102770.97;;;4.47;49.80
29417;BME280;28421;51.030;4.006;2023-03-01T10:52:29;102774.00;;;4.57;49.29
29417;BME280;28421;51.030;4.006;2023-03-01T10:54:57;102784.22;;;4.64;48.90
29417;BME280;28421;51.030;4.006;2023-03-01T10:57:33;102784.31;;;4.63;48.63
29417;BME280;28421;51.030;4.006;2023-03-01T11:00:16;102743.91;;;4.70;49.97
29417;BME280;28421;51.030;4.006;2023-03-01T11:05:24;102775.09;;;5.00;48.54
29417;BME280;28421;51.030;4.006;2023-03-01T11:07:56;102771.28;;;5.04;48.47
29417;BME280;28421;51.030;4.006;2023-03-01T11:10:33;102761.44;;;4.90;47.33
29417;BME280;28421;51.030;4.006;2023-03-01T11:13:28;102688.09;;;4.53;47.14
29417;BME280;28421;51.030;4.006;2023-03-01T11:16:02;102702.31;;;4.68;48.19
29417;BME280;28421;51.030;4.006;2023-03-01T11:18:30;102756.53;;;4.98;47.41
29417;BME280;28421;51.030;4.006;2023-03-01T11:20:56;102746.72;;;4.99;46.99
29417;BME280;28421;51.030;4.006;2023-03-01T11:23:24;102721.00;;;4.98;46.91
29417;BME280;28421;51.030;4.006;2023-03-01T11:25:55;102742.38;;;5.12;47.41
29417;BME280;28421;51.030;4.006;2023-03-01T11:28:21;102732.91;;;5.22;48.11
29417;BME280;28421;51.030;4.006;2023-03-01T11:31:09;102712.06;;;4.99;46.36
29417;BME280;28421;51.030;4.006;2023-03-01T11:33:59;102743.47;;;5.24;46.80
29417;BME280;28421;51.030;4.006;2023-03-01T11:42:18;102727.88;;;5.46;47.23
29417;BME280;28421;51.030;4.006;2023-03-01T11:44:47;102677.38;;;5.29;46.54
29417;BME280;28421;51.030;4.006;2023-03-01T11:50:25;102726.97;;;5.62;46.37
29417;BME280;28421;51.030;4.006;2023-03-01T12:01:25;102699.88;;;5.54;46.90
29417;BME280;28421;51.030;4.006;2023-03-01T12:04:10;102705.97;;;5.84;46.25
29417;BME280;28421;51.030;4.006;2023-03-01T12:06:50;102700.38;;;5.74;45.68
29417;BME280;28421;51.030;4.006;2023-03-01T12:12:26;102695.97;;;5.88;45.71
29417;BME280;28421;51.030;4.006;2023-03-01T12:21:10;102698.19;;;5.95;44.44
29417;BME280;28421;51.030;4.006;2023-03-01T12:26:35;102693.69;;;6.25;45.36
29417;BME280;28421;51.030;4.006;2023-03-01T12:34:51;102649.91;;;6.13;44.87
29417;BME280;28421;51.030;4.006;2023-03-01T12:51:07;102621.16;;;6.31;43.02
29417;BME280;28421;51.030;4.006;2023-03-01T12:53:39;102637.44;;;6.40;43.04
29417;BME280;28421;51.030;4.006;2023-03-01T12:56:07;102619.66;;;6.27;42.71
29417;BME280;28421;51.030;4.006;2023-03-01T13:01:36;102621.00;;;6.46;44.05
29417;BME280;28421;51.030;4.006;2023-03-01T13:04:24;102628.44;;;6.68;43.47
29417;BME280;28421;51.030;4.006;2023-03-01T13:17:52;102609.66;;;6.95;42.19
29417;BME280;28421;51.030;4.006;2023-03-01T13:20:27;102610.19;;;6.88;42.41
29417;BME280;28421;51.030;4.006;2023-03-01T13:23:31;102526.94;;;6.54;41.95
29417;BME280;28421;51.030;4.006;2023-03-01T13:30:59;102529.88;;;6.64;42.15
29417;BME280;28421;51.030;4.006;2023-03-01T13:35:54;102571.81;;;6.76;41.16
29417;BME280;28421;51.030;4.006;2023-03-01T13:38:44;102589.88;;;6.85;43.11
29417;BME280;28421;51.030;4.006;2023-03-01T13:41:12;102551.91;;;6.80;41.88
29417;BME280;28421;51.030;4.006;2023-03-01T13:43:41;102569.34;;;6.98;41.54
29417;BME280;28421;51.030;4.006;2023-03-01T13:46:23;102540.78;;;6.73;42.30
29417;BME280;28421;51.030;4.006;2023-03-01T13:48:51;102551.28;;;7.02;42.03
29417;BME280;28421;51.030;4.006;2023-03-01T13:51:22;102555.13;;;7.11;42.49
29417;BME280;28421;51.030;4.006;2023-03-01T13:53:49;102526.97;;;6.80;41.52
29417;BME280;28421;51.030;4.006;2023-03-01T13:56:23;102531.13;;;6.96;42.31
29417;BME280;28421;51.030;4.006;2023-03-01T13:58:53;102516.91;;;6.96;41.63
29417;BME280;28421;51.030;4.006;2023-03-01T14:03:47;102483.56;;;6.63;42.38
29417;BME280;28421;51.030;4.006;2023-03-01T14:06:14;102545.38;;;7.10;42.53
29417;BME280;28421;51.030;4.006;2023-03-01T14:08:41;102540.13;;;7.08;41.58
29417;BME280;28421;51.030;4.006;2023-03-01T14:13:59;102533.59;;;7.12;41.85
29417;BME280;28421;51.030;4.006;2023-03-01T14:16:54;102533.69;;;7.23;41.78
29417;BME280;28421;51.030;4.006;2023-03-01T14:19:26;102519.69;;;7.07;42.04
29417;BME280;28421;51.030;4.006;2023-03-01T14:24:50;102532.84;;;7.23;42.48
29417;BME280;28421;51.030;4.006;2023-03-01T14:27:17;102503.31;;;7.12;42.60
29417;BME280;28421;51.030;4.006;2023-03-01T14:29:44;102506.22;;;7.09;42.03
29417;BME280;28421;51.030;4.006;2023-03-01T14:32:22;102476.06;;;7.07;42.84
29417;BME280;28421;51.030;4.006;2023-03-01T14:34:50;102493.91;;;7.19;42.26
29417;BME280;28421;51.030;4.006;2023-03-01T14:37:30;102504.09;;;7.01;41.89
29417;BME280;28421;51.030;4.006;2023-03-01T14:39:58;102461.22;;;6.77;42.82
29417;BME280;28421;51.030;4.006;2023-03-01T14:42:28;102497.78;;;7.02;42.24
29417;BME280;28421;51.030;4.006;2023-03-01T14:44:56;102445.19;;;6.77;42.32
29417;BME280;28421;51.030;4.006;2023-03-01T14:49:57;102490.13;;;7.21;43.08
29417;BME280;28421;51.030;4.006;2023-03-01T14:52:34;102473.50;;;7.05;42.22
29417;BME280;28421;51.030;4.006;2023-03-01T14:55:02;102482.44;;;7.17;42.49
29417;BME280;28421;51.030;4.006;2023-03-01T14:57:29;102428.03;;;6.92;43.41
29417;BME280;28421;51.030;4.006;2023-03-01T14:59:59;102450.91;;;6.96;42.28
29417;BME280;28421;51.030;4.006;2023-03-01T15:02:30;102424.13;;;6.85;41.83
29417;BME280;28421;51.030;4.006;2023-03-01T15:04:58;102414.38;;;6.59;42.87
29417;BME280;28421;51.030;4.006;2023-03-01T15:07:34;102451.25;;;6.92;43.48
29417;BME280;28421;51.030;4.006;2023-03-01T15:10:02;102429.16;;;6.77;41.71
29417;BME280;28421;51.030;4.006;2023-03-01T15:14:57;102426.78;;;6.85;41.86
29417;BME280;28421;51.030;4.006;2023-03-01T15:17:26;102459.88;;;7.08;41.58
29417;BME280;28421;51.030;4.006;2023-03-01T15:19:54;102408.09;;;6.72;41.41
29417;BME280;28421;51.030;4.006;2023-03-01T15:22:20;102451.81;;;6.97;41.26
29417;BME280;28421;51.030;4.006;2023-03-01T15:24:48;102375.41;;;6.43;41.87
29417;BME280;28421;51.030;4.006;2023-03-01T15:27:22;102440.34;;;6.95;41.54
29417;BME280;28421;51.030;4.006;2023-03-01T15:29:53;102387.03;;;6.68;42.45
29417;BME280;28421;51.030;4.006;2023-03-01T15:32:32;102393.09;;;6.83;42.17
29417;BME280;28421;51.030;4.006;2023-03-01T15:35:32;102380.38;;;6.73;42.00
29417;BME280;28421;51.030;4.006;2023-03-01T15:37:49;102438.16;;;7.13;41.59
29417;BME280;28421;51.030;4.006;2023-03-01T15:42:49;102430.84;;;7.28;41.31
29417;BME280;28421;51.030;4.006;2023-03-01T15:47:47;102353.84;;;6.83;41.42
29417;BME280;28421;51.030;4.006;2023-03-01T15:50:34;102384.97;;;6.71;42.02
29417;BME280;28421;51.030;4.006;2023-03-01T15:53:01;102384.06;;;6.96;42.17
29417;BME280;28421;51.030;4.006;2023-03-01T15:55:30;102385.97;;;7.07;41.23
29417;BME280;28421;51.030;4.006;2023-03-01T15:58:14;102413.66;;;7.19;41.22
29417;BME280;28421;51.030;4.006;2023-03-01T16:00:41;102348.72;;;6.67;40.94
29417;BME280;28421;51.030;4.006;2023-03-01T16:03:08;102371.66;;;6.46;41.78
29417;BME280;28421;51.030;4.006;2023-03-01T16:05:37;102359.78;;;6.25;42.36
29417;BME280;28421;51.030;4.006;2023-03-01T16:08:04;102364.16;;;6.26;42.64
29417;BME280;28421;51.030;4.006;2023-03-01T16:10:34;102355.19;;;6.01;43.31
29417;BME280;28421;51.030;4.006;2023-03-01T16:13:00;102359.59;;;6.02;43.33
29417;BME280;28421;51.030;4.006;2023-03-01T16:15:27;102373.69;;;6.17;42.75
29417;BME280;28421;51.030;4.006;2023-03-01T16:17:54;102336.75;;;5.71;44.22
29417;BME280;28421;51.030;4.006;2023-03-01T16:20:21;102365.53;;;5.93;44.10
29417;BME280;28421;51.030;4.006;2023-03-01T16:22:47;102365.53;;;5.93;44.51
29417;BME280;28421;51.030;4.006;2023-03-01T16:25:16;102373.75;;;5.90;44.97
29417;BME280;28421;51.030;4.006;2023-03-01T16:27:43;102393.22;;;6.05;44.17
29417;BME280;28421;51.030;4.006;2023-03-01T16:30:10;102372.47;;;5.95;44.05
29417;BME280;28421;51.030;4.006;2023-03-01T16:32:39;102360.75;;;5.58;44.15
29417;BME280;28421;51.030;4.006;2023-03-01T16:35:10;102339.25;;;5.47;44.61
29417;BME280;28421;51.030;4.006;2023-03-01T16:37:36;102408.56;;;6.01;44.33
29417;BME280;28421;51.030;4.006;2023-03-01T16:40:04;102396.34;;;5.84;44.40
29417;BME280;28421;51.030;4.006;2023-03-01T16:42:33;102346.16;;;5.37;44.94
29417;BME280;28421;51.030;4.006;2023-03-01T16:45:05;102414.69;;;5.76;44.31
29417;BME280;28421;51.030;4.006;2023-03-01T16:47:33;102409.34;;;5.76;44.80
29417;BME280;28421;51.030;4.006;2023-03-01T16:49:58;102404.41;;;5.57;45.01
29417;BME280;28421;51.030;4.006;2023-03-01T16:52:24;102397.66;;;5.52;45.34
29417;BME280;28421;51.030;4.006;2023-03-01T16:54:49;102393.56;;;5.46;45.35
29417;BME280;28421;51.030;4.006;2023-03-01T16:57:14;102366.53;;;5.11;46.08
29417;BME280;28421;51.030;4.006;2023-03-01T16:59:40;102371.38;;;5.18;45.61
29417;BME280;28421;51.030;4.006;2023-03-01T17:02:08;102413.63;;;5.24;46.17
29417;BME280;28421;51.030;4.006;2023-03-01T17:04:35;102387.22;;;5.07;46.22
29417;BME280;28421;51.030;4.006;2023-03-01T17:07:00;102391.09;;;5.02;46.65
29417;BME280;28421;51.030;4.006;2023-03-01T17:09:25;102347.47;;;4.76;46.78
29417;BME280;28421;51.030;4.006;2023-03-01T17:11:51;102370.50;;;4.77;47.25
29417;BME280;28421;51.030;4.006;2023-03-01T17:14:16;102389.06;;;4.78;47.16
29417;BME280;28421;51.030;4.006;2023-03-01T17:16:43;102414.47;;;4.84;47.82
29417;BME280;28421;51.030;4.006;2023-03-01T17:19:09;102410.19;;;4.67;48.73
29417;BME280;28421;51.030;4.006;2023-03-01T17:21:34;102375.66;;;4.51;48.55
29417;BME280;28421;51.030;4.006;2023-03-01T17:24:00;102394.78;;;4.58;49.02
29417;BME280;28421;51.030;4.006;2023-03-01T17:26:26;102419.88;;;4.68;48.49
29417;BME280;28421;51.030;4.006;2023-03-01T17:28:54;102401.25;;;4.54;49.48
29417;BME280;28421;51.030;4.006;2023-03-01T17:31:20;102392.63;;;4.06;51.38
29417;BME280;28421;51.030;4.006;2023-03-01T17:33:46;102394.03;;;3.97;52.11
29417;BME280;28421;51.030;4.006;2023-03-01T17:36:11;102384.09;;;3.70;51.87
29417;BME280;28421;51.030;4.006;2023-03-01T17:38:37;102407.50;;;3.64;52.75
29417;BME280;28421;51.030;4.006;2023-03-01T17:41:03;102426.09;;;3.49;53.79
29417;BME280;28421;51.030;4.006;2023-03-01T17:43:29;102388.44;;;3.10;53.64
29417;BME280;28421;51.030;4.006;2023-03-01T17:45:55;102427.97;;;3.32;53.94
29417;BME280;28421;51.030;4.006;2023-03-01T17:48:21;102391.47;;;3.04;54.24
29417;BME280;28421;51.030;4.006;2023-03-01T17:50:46;102420.34;;;3.26;54.05
29417;BME280;28421;51.030;4.006;2023-03-01T17:53:12;102429.28;;;3.24;54.71
29417;BME280;28421;51.030;4.006;2023-03-01T17:55:39;102419.22;;;2.98;54.71
29417;BME280;28421;51.030;4.006;2023-03-01T17:58:05;102409.03;;;2.90;54.95
29417;BME280;28421;51.030;4.006;2023-03-01T18:00:31;102448.94;;;2.89;56.05
29417;BME280;28421;51.030;4.006;2023-03-01T18:02:57;102447.03;;;2.75;56.75
29417;BME280;28421;51.030;4.006;2023-03-01T18:05:23;102392.63;;;2.33;56.77
29417;BME280;28421;51.030;4.006;2023-03-01T18:07:50;102411.50;;;2.27;57.19
29417;BME280;28421;51.030;4.006;2023-03-01T18:10:17;102457.31;;;2.48;57.17
29417;BME280;28421;51.030;4.006;2023-03-01T18:12:43;102447.28;;;2.37;56.88
29417;BME280;28421;51.030;4.006;2023-03-01T18:15:09;102444.06;;;2.31;57.50
29417;BME280;28421;51.030;4.006;2023-03-01T18:17:35;102414.91;;;1.96;58.30
29417;BME280;28421;51.030;4.006;2023-03-01T18:20:00;102429.09;;;1.95;58.14
29417;BME280;28421;51.030;4.006;2023-03-01T18:22:26;102418.56;;;1.76;58.66
29417;BME280;28421;51.030;4.006;2023-03-01T18:24:51;102392.53;;;1.48;59.04
29417;BME280;28421;51.030;4.006;2023-03-01T18:27:17;102471.69;;;1.92;58.80
29417;BME280;28421;51.030;4.006;2023-03-01T18:29:42;102462.78;;;1.76;58.95
29417;BME280;28421;51.030;4.006;2023-03-01T18:32:08;102435.88;;;1.47;58.87
29417;BME280;28421;51.030;4.006;2023-03-01T18:34:33;102456.66;;;1.56;59.21
29417;BME280;28421;51.030;4.006;2023-03-01T18:36:59;102476.50;;;1.66;59.21
29417;BME280;28421;51.030;4.006;2023-03-01T18:39:27;102439.63;;;1.43;59.29
29417;BME280;28421;51.030;4.006;2023-03-01T18:41:53;102437.47;;;1.51;59.10
29417;BME280;28421;51.030;4.006;2023-03-01T18:44:18;102463.50;;;1.60;58.64
29417;BME280;28421;51.030;4.006;2023-03-01T18:46:43;102458.06;;;1.63;58.81
29417;BME280;28421;51.030;4.006;2023-03-01T18:49:12;102434.09;;;1.47;58.72
29417;BME280;28421;51.030;4.006;2023-03-01T18:51:38;102424.22;;;1.32;58.89
29417;BME280;28421;51.030;4.006;2023-03-01T18:54:04;102422.78;;;1.44;58.79
29417;BME280;28421;51.030;4.006;2023-03-01T18:56:32;102426.47;;;1.41;59.06
29417;BME280;28421;51.030;4.006;2023-03-01T18:58:58;102436.53;;;1.52;59.42
29417;BME280;28421;51.030;4.006;2023-03-01T19:01:29;102426.03;;;1.32;59.53
29417;BME280;28421;51.030;4.006;2023-03-01T19:03:55;102430.44;;;1.50;59.22
29417;BME280;28421;51.030;4.006;2023-03-01T19:06:22;102404.69;;;1.35;59.66
29417;BME280;28421;51.030;4.006;2023-03-01T19:08:49;102443.94;;;1.45;59.89
29417;BME280;28421;51.030;4.006;2023-03-01T19:11:16;102457.44;;;1.58;59.41
29417;BME280;28421;51.030;4.006;2023-03-01T19:13:43;102458.56;;;1.53;59.44
29417;BME280;28421;51.030;4.006;2023-03-01T19:16:14;102422.75;;;1.27;59.45
29417;BME280;28421;51.030;4.006;2023-03-01T19:18:41;102413.53;;;1.16;59.59
29417;BME280;28421;51.030;4.006;2023-03-01T19:21:09;102378.00;;;0.83;60.02
29417;BME280;28421;51.030;4.006;2023-03-01T19:23:36;102436.97;;;1.24;59.83
29417;BME280;28421;51.030;4.006;2023-03-01T19:26:13;102450.88;;;1.29;60.21
29417;BME280;28421;51.030;4.006;2023-03-01T19:28:39;102368.84;;;0.90;60.81
29417;BME280;28421;51.030;4.006;2023-03-01T19:31:10;102388.25;;;1.09;60.45
29417;BME280;28421;51.030;4.006;2023-03-01T19:33:36;102396.31;;;1.25;59.68
29417;BME280;28421;51.030;4.006;2023-03-01T19:36:04;102371.50;;;1.09;59.83
29417;BME280;28421;51.030;4.006;2023-03-01T19:38:30;102434.00;;;1.49;59.88
29417;BME280;28421;51.030;4.006;2023-03-01T19:40:56;102441.81;;;1.52;59.81
29417;BME280;28421;51.030;4.006;2023-03-01T19:43:22;102431.34;;;1.49;60.01
29417;BME280;28421;51.030;4.006;2023-03-01T19:45:52;102384.06;;;1.22;59.94
29417;BME280;28421;51.030;4.006;2023-03-01T19:48:18;102411.91;;;1.50;59.53
29417;BME280;28421;51.030;4.006;2023-03-01T19:50:43;102421.25;;;1.57;59.52
29417;BME280;28421;51.030;4.006;2023-03-01T19:53:13;102400.16;;;1.37;59.51
29417;BME280;28421;51.030;4.006;2023-03-01T19:55:39;102424.00;;;1.37;59.64